Time,TemperatureF,DewpointF,PressureIn,WindDirection,WindDirectionDegrees,WindSpeedMPH,WindSpeedGustMPH,Humidity,HourlyPrecipIn,Conditions,Clouds,dailyrainin,SoftwareType,DateUTC
2013-07-28 00:01:00,60.3,55.4,30.02,ENE,70,0.0,0.0,84,0.00,CLR,,0.00,WeatherDisplay:10.37,2013-07-28 04:01:00,
2013-07-28 00:02:00,60.3,55.4,30.02,ENE,70,0.0,0.0,84,0.00,CLR,,0.00,WeatherDisplay:10.37,2013-07-28 04:02:00,
2013-07-28 00:03:00,60.3,55.4,30.02,ENE,70,0.0,0.0,84,0.00,CLR,,0.00,WeatherDisplay:10.37,2013-07-28 04:03:00,
2013-07-28 00:08:00,60.5,55.6,30.02,ENE,70,0.0,0.0,84,0.00,CLR,,0.00,WeatherDisplay:10.37,2013-07-28 04:08:00,
2013-07-28 00:13:00,60.5,55.6,30.02,ENE,70,0.0,0.0,84,0.00,CLR,,0.00,WeatherDisplay:10.37,2013-07-28 04:13:00,
2013-07-28 00:18:00,60.2,55.3,30.02,ENE,70,0.0,0.0,84,0.00,CLR,,0.00,WeatherDisplay:10.37,2013-07-28 04:18:00,
2013-07-28 00:23:00,59.9,55.1,30.02,ENE,70,0.0,0.0,84,0.00,CLR,,0.00,WeatherDisplay:10.37,2013-07-28 04:23:00,
2013-07-28 00:28:00,60.1,55.2,30.02,ENE,70,0.0,0.0,84,0.00,CLR,,0.00,WeatherDisplay:10.37,2013-07-28 04:28:00,
2013-07-28 00:33:00,59.8,55.0,30.02,ENE,70,0.0,0.0,84,0.00,CLR,,0.00,WeatherDisplay:10.37,2013-07-28 04:33:00,
2013-07-28 00:38:00,59.8,55.0,30.02,ENE,70,0.0,0.0,84,0.00,CLR,,0.00,WeatherDisplay:10.37,2013-07-28 04:38:00,
2013-07-28 00:43:00,59.7,54.9,30.02,ENE,70,0.0,0.0,84,0.00,CLR,,0.00,WeatherDisplay:10.37,2013-07-28 04:43:00,
2013-07-28 00:48:00,59.9,55.1,30.02,ENE,70,0.0,0.0,84,0.00,CLR,,0.00,WeatherDisplay:10.37,2013-07-28 04:48:00,
2013-07-28 00:53:00,59.7,54.9,30.02,ENE,70,0.0,0.0,84,0.00,CLR,,0.00,WeatherDisplay:10.37,2013-07-28 04:53:00,
2013-07-28 00:58:00,59.4,54.6,30.02,ENE,70,0.0,0.0,84,0.00,CLR,,0.00,WeatherDisplay:10.37,2013-07-28 04:58:00,
2013-07-28 01:03:00,59.6,57.6,30.01,ENE,70,0.0,0.0,93,0.00,CLR,,0.00,WeatherDisplay:10.37,2013-07-28 05:03:00,
2013-07-28 01:08:00,59.3,57.3,30.01,ENE,70,0.0,0.0,93,0.00,CLR,,0.00,WeatherDisplay:10.37,2013-07-28 05:08:00,
2013-07-28 01:13:00,59.1,57.1,30.01,ENE,70,0.0,0.0,93,0.00,CLR,,0.00,WeatherDisplay:10.37,2013-07-28 05:13:00,
2013-07-28 01:18:00,59.5,57.5,30.01,ENE,70,0.0,0.0,93,0.00,CLR,,0.00,WeatherDisplay:10.37,2013-07-28 05:18:00,
2013-07-28 01:23:00,59.4,57.4,30.01,ENE,70,0.0,0.0,93,0.00,CLR,,0.00,WeatherDisplay:10.37,2013-07-28 05:23:00,
2013-07-28 01:28:00,59.2,57.2,30.01,ENE,70,0.0,0.0,93,0.00,CLR,,0.00,WeatherDisplay:10.37,2013-07-28 05:28:00,
2013-07-28 01:33:00,59.0,57.0,30.01,ENE,70,0.0,0.0,93,0.00,CLR,,0.00,WeatherDisplay:10.37,2013-07-28 05:33:00,
2013-07-28 01:38:00,59.1,57.1,30.01,ENE,70,0.0,0.0,93,0.00,CLR,,0.00,WeatherDisplay:10.37,2013-07-28 05:38:00,
2013-07-28 01:43:00,58.8,56.8,30.01,ENE,70,0.0,0.0,93,0.00,CLR,,0.00,WeatherDisplay:10.37,2013-07-28 05:43:00,
2013-07-28 01:48:00,58.5,56.5,30.01,ENE,70,0.0,0.0,93,0.00,CLR,,0.00,WeatherDisplay:10.37,2013-07-28 05:48:00,
2013-07-28 01:53:00,58.4,56.4,30.01,ENE,70,0.0,0.0,93,0.00,CLR,,0.00,WeatherDisplay:10.37,2013-07-28 05:53:00,
2013-07-28 01:58:00,58.6,56.6,30.01,ENE,70,0.0,0.0,93,0.00,CLR,,0.00,WeatherDisplay:10.37,2013-07-28 05:58:00,
2013-07-28 02:03:00,58.7,56.7,30.01,ENE,70,0.0,0.0,93,0.00,CLR,,0.00,WeatherDisplay:10.37,2013-07-28 06:03:00,
2013-07-28 02:08:00,58.8,56.8,30.01,ENE,70,0.0,0.0,93,0.00,CLR,,0.00,WeatherDisplay:10.37,2013-07-28 06:08:00,
2013-07-28 02:13:00,58.5,56.5,30.01,ENE,70,0.0,0.0,93,0.00,CLR,,0.00,WeatherDisplay:10.37,2013-07-28 06:13:00,
2013-07-28 02:18:00,58.5,56.5,30.01,ENE,70,0.0,0.0,93,0.00,CLR,,0.00,WeatherDisplay:10.37,2013-07-28 06:18:00,
2013-07-28 02:23:00,58.6,56.6,30.01,ENE,70,0.0,0.0,93,0.00,CLR,,0.00,WeatherDisplay:10.37,2013-07-28 06:23:00,
2013-07-28 02:28:00,58.7,56.7,30.01,ENE,70,0.0,0.0,93,0.00,CLR,,0.00,WeatherDisplay:10.37,2013-07-28 06:28:00,
2013-07-28 02:33:00,58.6,56.6,30.01,ENE,70,0.0,0.0,93,0.00,CLR,,0.00,WeatherDisplay:10.37,2013-07-28 06:33:00,
2013-07-28 02:38:00,58.2,56.2,30.01,ENE,70,0.0,0.0,93,0.00,CLR,,0.00,WeatherDisplay:10.37,2013-07-28 06:38:00,
2013-07-28 02:43:00,58.4,56.4,30.01,ENE,70,0.0,0.0,93,0.00,CLR,,0.00,WeatherDisplay:10.37,2013-07-28 06:43:00,
2013-07-28 02:48:00,58.4,56.4,30.01,ENE,70,0.0,0.0,93,0.00,CLR,,0.00,WeatherDisplay:10.37,2013-07-28 06:48:00,
2013-07-28 02:53:00,58.4,56.4,30.01,ENE,70,0.0,0.0,93,0.00,CLR,,0.00,WeatherDisplay:10.37,2013-07-28 06:53:00,
2013-07-28 02:58:00,58.4,56.4,30.01,ENE,71,0.0,0.0,93,0.00,CLR,,0.00,WeatherDisplay:10.37,2013-07-28 06:58:00,
2013-07-28 03:03:00,58.4,57.3,30.01,ENE,71,1.1,0.0,96,0.00,CLR,,0.00,WeatherDisplay:10.37,2013-07-28 07:03:00,
2013-07-28 03:08:00,58.4,57.3,30.01,ENE,70,0.0,0.0,96,0.00,CLR,,0.00,WeatherDisplay:10.37,2013-07-28 07:08:00,
2013-07-28 03:13:00,58.2,57.1,30.01,ENE,70,0.0,0.0,96,0.00,CLR,,0.00,WeatherDisplay:10.37,2013-07-28 07:13:00,
2013-07-28 03:18:00,58.1,57.0,30.01,ENE,70,0.0,0.0,96,0.00,CLR,,0.00,WeatherDisplay:10.37,2013-07-28 07:18:00,
2013-07-28 03:23:00,58.1,58.1,30.01,ENE,71,0.0,0.0,100,0.00,CLR,,0.00,WeatherDisplay:10.37,2013-07-28 07:23:00,
2013-07-28 03:28:00,58.1,58.1,30.01,ENE,70,0.0,0.0,100,0.00,CLR,,0.00,WeatherDisplay:10.37,2013-07-28 07:28:00,
2013-07-28 03:33:00,58.0,58.0,30.01,ENE,70,0.0,0.0,100,0.00,CLR,,0.00,WeatherDisplay:10.37,2013-07-28 07:33:00,
2013-07-28 03:38:00,57.9,57.9,30.01,ENE,70,0.0,0.0,100,0.00,CLR,,0.00,WeatherDisplay:10.37,2013-07-28 07:38:00,
2013-07-28 03:43:00,57.8,57.8,30.01,ENE,70,0.0,0.0,100,0.00,CLR,,0.00,WeatherDisplay:10.37,2013-07-28 07:43:00,
2013-07-28 03:48:00,57.4,57.4,30.01,ENE,71,0.0,0.0,100,0.00,CLR,,0.00,WeatherDisplay:10.37,2013-07-28 07:48:00,
2013-07-28 03:53:00,57.6,57.6,30.01,ENE,70,0.0,0.0,100,0.00,CLR,,0.00,WeatherDisplay:10.37,2013-07-28 07:53:00,
2013-07-28 03:58:00,57.5,57.5,30.01,ENE,70,0.0,0.0,100,0.00,CLR,,0.00,WeatherDisplay:10.37,2013-07-28 07:58:00,
2013-07-28 04:03:00,57.4,57.4,30.01,ENE,70,0.0,0.0,100,0.00,CLR,,0.00,WeatherDisplay:10.37,2013-07-28 08:03:00,
2013-07-28 04:08:00,57.6,57.6,30.01,ENE,70,0.0,0.0,100,0.00,CLR,,0.00,WeatherDisplay:10.37,2013-07-28 08:08:00,
2013-07-28 04:13:00,57.8,57.8,30.01,ENE,70,0.0,0.0,100,0.00,CLR,,0.00,WeatherDisplay:10.37,2013-07-28 08:13:00,
2013-07-28 04:18:00,57.3,57.3,30.01,ENE,70,0.0,0.0,100,0.00,CLR,,0.00,WeatherDisplay:10.37,2013-07-28 08:18:00,
2013-07-28 04:23:00,57.2,57.2,30.01,ENE,70,0.0,0.0,100,0.00,CLR,,0.00,WeatherDisplay:10.37,2013-07-28 08:23:00,
2013-07-28 04:28:00,56.9,56.9,30.01,ENE,70,0.0,0.0,100,0.00,CLR,,0.00,WeatherDisplay:10.37,2013-07-28 08:28:00,
2013-07-28 04:33:00,56.8,56.8,30.01,ENE,70,0.0,0.0,100,0.00,CLR,,0.00,WeatherDisplay:10.37,2013-07-28 08:33:00,
2013-07-28 04:38:00,57.0,57.0,30.01,ENE,70,0.0,0.0,100,0.00,CLR,,0.00,WeatherDisplay:10.37,2013-07-28 08:38:00,
2013-07-28 04:43:00,57.1,57.1,30.01,ENE,71,0.0,0.0,100,0.00,CLR,,0.00,WeatherDisplay:10.37,2013-07-28 08:43:00,
2013-07-28 04:48:00,56.9,56.9,30.01,ENE,70,0.0,0.0,100,0.00,CLR,,0.00,WeatherDisplay:10.37,2013-07-28 08:48:00,
2013-07-28 04:53:00,57.1,57.1,30.01,ENE,70,0.0,0.0,100,0.00,CLR,,0.00,WeatherDisplay:10.37,2013-07-28 08:53:00,
2013-07-28 04:58:00,57.4,57.4,30.01,ENE,71,0.0,0.0,100,0.00,CLR,,0.00,WeatherDisplay:10.37,2013-07-28 08:58:00,
2013-07-28 05:03:00,57.5,57.5,30.01,ENE,70,0.0,0.0,100,0.00,CLR,,0.00,WeatherDisplay:10.37,2013-07-28 09:03:00,
2013-07-28 05:08:00,57.3,57.3,30.01,ENE,70,0.0,0.0,100,0.00,CLR,,0.00,WeatherDisplay:10.37,2013-07-28 09:08:00,
2013-07-28 05:13:00,57.2,57.2,30.01,ENE,70,0.0,0.0,100,0.00,CLR,,0.00,WeatherDisplay:10.37,2013-07-28 09:13:00,
2013-07-28 05:18:00,56.8,56.8,30.01,ENE,70,0.0,0.0,100,0.00,CLR,,0.00,WeatherDisplay:10.37,2013-07-28 09:18:00,
2013-07-28 05:23:00,56.8,56.8,30.01,ENE,70,0.0,0.0,100,0.00,CLR,,0.00,WeatherDisplay:10.37,2013-07-28 09:23:00,
2013-07-28 05:28:00,56.9,56.9,30.01,ENE,70,0.0,0.0,100,0.00,CLR,,0.00,WeatherDisplay:10.37,2013-07-28 09:28:00,
2013-07-28 05:33:00,57.1,57.1,30.01,ENE,71,0.0,0.0,100,0.00,CLR,,0.00,WeatherDisplay:10.37,2013-07-28 09:33:00,
2013-07-28 05:38:00,57.1,57.1,30.01,ENE,70,0.0,0.0,100,0.00,CLR,,0.00,WeatherDisplay:10.37,2013-07-28 09:38:00,
2013-07-28 05:43:00,57.1,57.1,30.01,ENE,70,0.0,0.0,100,0.00,BKN,,0.00,WeatherDisplay:10.37,2013-07-28 09:43:00,
2013-07-28 05:48:00,57.4,57.4,30.01,ENE,70,0.0,0.0,100,0.00,BKN,,0.00,WeatherDisplay:10.37,2013-07-28 09:48:00,
2013-07-28 05:53:00,57.4,57.4,30.01,ENE,70,0.0,0.0,100,0.00,BKN,,0.00,WeatherDisplay:10.37,2013-07-28 09:53:00,
2013-07-28 05:58:00,57.4,57.4,30.01,ENE,70,0.0,0.0,100,0.00,BKN,,0.00,WeatherDisplay:10.37,2013-07-28 09:58:00,
2013-07-28 06:03:00,57.7,57.7,30.01,ENE,70,0.0,0.0,100,0.00,BKN,,0.00,WeatherDisplay:10.37,2013-07-28 10:03:00,
2013-07-28 06:08:00,57.8,57.8,30.01,ENE,70,0.0,0.0,100,0.00,BKN,,0.00,WeatherDisplay:10.37,2013-07-28 10:08:00,
2013-07-28 06:13:00,57.8,57.8,30.01,ENE,70,0.0,0.0,100,0.00,BKN,,0.00,WeatherDisplay:10.37,2013-07-28 10:13:00,
2013-07-28 06:18:00,57.5,57.5,30.01,ENE,70,0.0,0.0,100,0.00,BKN,,0.00,WeatherDisplay:10.37,2013-07-28 10:18:00,
2013-07-28 06:23:00,57.5,57.5,30.01,ENE,70,0.0,0.0,100,0.00,BKN,,0.00,WeatherDisplay:10.37,2013-07-28 10:23:00,
2013-07-28 06:28:00,57.8,57.8,30.01,ENE,70,0.0,0.0,100,0.00,BKN,,0.00,WeatherDisplay:10.37,2013-07-28 10:28:00,
2013-07-28 06:33:00,58.2,58.2,30.01,ENE,70,0.0,0.0,100,0.00,BKN,,0.00,WeatherDisplay:10.37,2013-07-28 10:33:00,
2013-07-28 06:38:00,58.3,58.3,30.01,ENE,70,0.0,0.0,100,0.00,BKN,,0.00,WeatherDisplay:10.37,2013-07-28 10:38:00,
2013-07-28 06:43:00,58.4,58.4,30.01,ENE,70,0.0,0.0,100,0.00,BKN,,0.00,WeatherDisplay:10.37,2013-07-28 10:43:00,
2013-07-28 06:48:00,58.3,58.3,30.01,ENE,70,0.0,0.0,100,0.00,BKN,,0.00,WeatherDisplay:10.37,2013-07-28 10:48:00,
2013-07-28 06:53:00,58.4,58.4,30.01,ENE,70,0.0,0.0,100,0.00,BKN,,0.00,WeatherDisplay:10.37,2013-07-28 10:53:00,
2013-07-28 06:58:00,58.3,58.3,30.01,ENE,70,0.0,0.0,100,0.00,BKN,,0.00,WeatherDisplay:10.37,2013-07-28 10:58:00,
2013-07-28 07:03:00,58.2,58.2,30.01,ENE,70,0.0,0.0,100,0.00,BKN,,0.00,WeatherDisplay:10.37,2013-07-28 11:03:00,
2013-07-28 07:08:00,58.6,58.6,30.01,ENE,70,0.0,0.0,100,0.00,BKN,,0.00,WeatherDisplay:10.37,2013-07-28 11:08:00,
2013-07-28 07:13:00,58.6,58.6,30.01,ENE,70,0.0,0.0,100,0.00,BKN,,0.00,WeatherDisplay:10.37,2013-07-28 11:13:00,
2013-07-28 07:18:00,59.0,59.0,30.01,ENE,70,0.0,0.0,100,0.00,BKN,,0.00,WeatherDisplay:10.37,2013-07-28 11:18:00,
2013-07-28 07:23:00,59.0,59.0,30.01,ENE,70,0.0,0.0,100,0.00,BKN,,0.00,WeatherDisplay:10.37,2013-07-28 11:23:00,
2013-07-28 07:28:00,59.1,59.1,30.01,ENE,70,0.0,0.0,100,0.00,BKN,,0.00,WeatherDisplay:10.37,2013-07-28 11:28:00,
2013-07-28 07:33:00,59.3,59.3,30.01,ENE,71,0.0,0.0,100,0.00,BKN,,0.00,WeatherDisplay:10.37,2013-07-28 11:33:00,
2013-07-28 07:38:00,59.4,59.4,30.01,ENE,70,0.0,0.0,100,0.00,BKN,,0.00,WeatherDisplay:10.37,2013-07-28 11:38:00,
2013-07-28 07:43:00,59.2,59.2,30.01,ENE,70,0.0,0.0,100,0.00,BKN,,0.00,WeatherDisplay:10.37,2013-07-28 11:43:00,
2013-07-28 07:48:00,59.6,59.6,30.01,ENE,70,0.0,0.0,100,0.00,BKN,,0.00,WeatherDisplay:10.37,2013-07-28 11:48:00,
2013-07-28 07:53:00,59.7,59.7,30.01,ENE,70,0.0,0.0,100,0.00,BKN,,0.00,WeatherDisplay:10.37,2013-07-28 11:53:00,
2013-07-28 07:58:00,60.1,60.1,30.01,ENE,70,0.0,0.0,100,0.00,BKN,,0.00,WeatherDisplay:10.37,2013-07-28 11:58:00,
2013-07-28 08:03:00,60.7,59.6,30.02,ENE,70,0.0,0.0,96,0.00,BKN,,0.00,WeatherDisplay:10.37,2013-07-28 12:03:00,
2013-07-28 08:08:00,61.5,60.3,30.02,ENE,70,0.0,0.0,96,0.00,BKN,,0.00,WeatherDisplay:10.37,2013-07-28 12:08:00,
2013-07-28 08:13:00,61.9,60.7,30.02,ENE,70,0.0,0.0,96,0.00,BKN,,0.00,WeatherDisplay:10.37,2013-07-28 12:13:00,
2013-07-28 08:18:00,62.4,61.2,30.02,ENE,70,0.0,0.0,96,0.00,BKN,,0.00,WeatherDisplay:10.37,2013-07-28 12:18:00,
2013-07-28 08:23:00,61.5,60.3,30.02,ENE,70,0.0,0.0,96,0.00,BKN,,0.00,WeatherDisplay:10.37,2013-07-28 12:23:00,
2013-07-28 08:28:00,61.8,60.6,30.02,ENE,70,0.0,0.0,96,0.00,BKN,,0.00,WeatherDisplay:10.37,2013-07-28 12:28:00,
2013-07-28 08:33:00,62.9,61.7,30.02,ENE,70,0.0,0.0,96,0.00,BKN,,0.00,WeatherDisplay:10.37,2013-07-28 12:33:00,
2013-07-28 08:38:00,63.5,62.3,30.02,ENE,70,0.0,0.0,96,0.00,BKN,,0.00,WeatherDisplay:10.37,2013-07-28 12:38:00,
2013-07-28 08:43:00,64.1,62.9,30.02,ENE,70,0.0,0.0,96,0.00,BKN,,0.00,WeatherDisplay:10.37,2013-07-28 12:43:00,
2013-07-28 08:48:00,64.4,63.2,30.02,ENE,70,0.0,0.0,96,0.00,BKN,,0.00,WeatherDisplay:10.37,2013-07-28 12:48:00,
2013-07-28 08:53:00,64.9,63.7,30.02,ENE,70,0.0,0.0,96,0.00,BKN,,0.00,WeatherDisplay:10.37,2013-07-28 12:53:00,
2013-07-28 08:58:00,64.7,63.5,30.02,ENE,71,1.1,0.0,96,0.00,BKN,,0.00,WeatherDisplay:10.37,2013-07-28 12:58:00,
2013-07-28 09:03:00,64.9,61.6,30.02,ENE,71,1.1,0.0,89,0.00,BKN,,0.00,WeatherDisplay:10.37,2013-07-28 13:03:00,
2013-07-28 09:08:00,65.3,62.0,30.02,ENE,70,0.0,0.0,89,0.00,BKN,,0.00,WeatherDisplay:10.37,2013-07-28 13:08:00,
2013-07-28 09:13:00,65.6,62.3,30.02,ENE,70,0.0,0.0,89,0.00,BKN,,0.00,WeatherDisplay:10.37,2013-07-28 13:13:00,
2013-07-28 09:18:00,65.7,62.4,30.02,ENE,70,0.0,0.0,89,0.00,BKN,,0.00,WeatherDisplay:10.37,2013-07-28 13:18:00,
2013-07-28 09:23:00,66.0,62.7,30.02,ENE,70,0.0,0.0,89,0.00,BKN,,0.00,WeatherDisplay:10.37,2013-07-28 13:23:00,
2013-07-28 09:28:00,66.4,63.1,30.02,ENE,70,0.0,0.0,89,0.00,BKN,,0.00,WeatherDisplay:10.37,2013-07-28 13:28:00,
2013-07-28 09:33:00,67.0,63.6,30.02,ENE,70,0.0,0.0,89,0.00,BKN,,0.00,WeatherDisplay:10.37,2013-07-28 13:33:00,
2013-07-28 09:38:00,67.4,64.0,30.02,ENE,70,0.0,0.0,89,0.00,BKN,,0.00,WeatherDisplay:10.37,2013-07-28 13:38:00,
2013-07-28 09:43:00,67.9,64.5,30.02,ENE,70,0.0,0.0,89,0.00,BKN,,0.00,WeatherDisplay:10.37,2013-07-28 13:43:00,
2013-07-28 09:48:00,67.6,64.2,30.02,ENE,70,0.0,0.0,89,0.00,BKN,,0.00,WeatherDisplay:10.37,2013-07-28 13:48:00,
2013-07-28 09:53:00,69.5,66.1,30.02,ENE,70,0.0,0.1,89,0.00,BKN,,0.00,WeatherDisplay:10.37,2013-07-28 13:53:00,
2013-07-28 09:58:00,70.2,66.8,30.02,ENE,70,1.1,0.0,89,0.00,BKN,,0.00,WeatherDisplay:10.37,2013-07-28 13:58:00,
2013-07-28 10:03:00,69.9,60.8,30.01,ENE,70,0.0,0.0,73,0.00,CLR,,0.00,WeatherDisplay:10.37,2013-07-28 14:03:00,
2013-07-28 10:08:00,70.2,61.1,30.01,ENE,70,1.0,0.0,73,0.00,CLR,,0.00,WeatherDisplay:10.37,2013-07-28 14:08:00,
2013-07-28 10:13:00,70.8,61.7,30.01,ENE,70,0.0,0.0,73,0.00,CLR,,0.00,WeatherDisplay:10.37,2013-07-28 14:13:00,
2013-07-28 10:18:00,71.4,62.3,30.01,ENE,70,0.0,0.0,73,0.00,CLR,,0.00,WeatherDisplay:10.37,2013-07-28 14:18:00,
2013-07-28 10:23:00,72.1,63.0,30.01,ENE,70,0.0,0.0,73,0.00,CLR,,0.00,WeatherDisplay:10.37,2013-07-28 14:23:00,
2013-07-28 10:28:00,71.7,62.6,30.01,ENE,70,0.0,0.0,73,0.00,CLR,,0.00,WeatherDisplay:10.37,2013-07-28 14:28:00,
2013-07-28 10:33:00,71.6,62.5,30.01,ENE,70,0.0,0.0,73,0.00,CLR,,0.00,WeatherDisplay:10.37,2013-07-28 14:33:00,
2013-07-28 10:38:00,71.1,62.0,30.01,ENE,70,0.0,0.0,73,0.00,CLR,,0.00,WeatherDisplay:10.37,2013-07-28 14:38:00,
2013-07-28 10:43:00,71.3,62.2,30.01,ENE,70,0.0,0.0,73,0.00,CLR,,0.00,WeatherDisplay:10.37,2013-07-28 14:43:00,
2013-07-28 10:48:00,71.1,62.0,30.01,ENE,70,0.0,0.0,73,0.00,CLR,,0.00,WeatherDisplay:10.37,2013-07-28 14:48:00,
2013-07-28 10:53:00,72.6,63.4,30.01,ENE,70,0.0,0.0,73,0.00,CLR,,0.00,WeatherDisplay:10.37,2013-07-28 14:53:00,
2013-07-28 10:58:00,73.0,63.8,30.01,ENE,71,0.0,0.0,73,0.00,CLR,,0.00,WeatherDisplay:10.37,2013-07-28 14:58:00,
2013-07-28 11:03:00,73.9,62.7,30.00,ENE,65,0.0,0.0,68,0.00,CLR,,0.00,WeatherDisplay:10.37,2013-07-28 15:03:00,
2013-07-28 11:08:00,74.5,63.2,30.00,ENE,65,0.0,0.0,68,0.00,CLR,,0.00,WeatherDisplay:10.37,2013-07-28 15:08:00,
2013-07-28 11:13:00,74.9,63.6,30.00,ENE,64,2.3,2.3,68,0.00,CLR,,0.00,WeatherDisplay:10.37,2013-07-28 15:13:00,
2013-07-28 11:18:00,74.5,63.2,30.00,ENE,64,0.0,0.0,68,0.00,CLR,,0.00,WeatherDisplay:10.37,2013-07-28 15:18:00,
2013-07-28 11:23:00,74.6,63.3,30.00,ENE,64,0.0,0.0,68,0.00,CLR,,0.00,WeatherDisplay:10.37,2013-07-28 15:23:00,
2013-07-28 11:28:00,75.3,64.0,30.00,ENE,64,2.3,2.3,68,0.00,CLR,,0.00,WeatherDisplay:10.37,2013-07-28 15:28:00,
2013-07-28 11:33:00,75.0,63.7,30.00,ENE,64,3.5,3.5,68,0.00,CLR,,0.00,WeatherDisplay:10.37,2013-07-28 15:33:00,
2013-07-28 11:38:00,75.1,63.8,30.00,ENE,64,1.1,1.1,68,0.00,CLR,,0.00,WeatherDisplay:10.37,2013-07-28 15:38:00,
2013-07-28 11:43:00,75.1,63.8,30.00,ENE,63,2.3,2.3,68,0.00,CLR,,0.00,WeatherDisplay:10.37,2013-07-28 15:43:00,
2013-07-28 11:48:00,75.9,64.6,30.00,ENE,63,2.3,2.3,68,0.00,CLR,,0.00,WeatherDisplay:10.37,2013-07-28 15:48:00,
2013-07-28 11:53:00,76.5,65.1,30.00,ENE,63,1.1,1.1,68,0.00,CLR,,0.00,WeatherDisplay:10.37,2013-07-28 15:53:00,
2013-07-28 11:58:00,76.0,64.7,30.00,ENE,63,1.1,1.1,68,0.00,CLR,,0.00,WeatherDisplay:10.37,2013-07-28 15:58:00,
2013-07-28 12:03:00,74.9,61.9,29.99,ENE,64,0.0,0.0,64,0.00,FEW,,0.00,WeatherDisplay:10.37,2013-07-28 16:03:00,
2013-07-28 12:08:00,75.3,62.3,29.99,ENE,63,0.0,0.0,64,0.00,FEW,,0.00,WeatherDisplay:10.37,2013-07-28 16:08:00,
2013-07-28 12:13:00,75.9,62.8,29.99,ENE,63,0.0,0.0,64,0.00,FEW,,0.00,WeatherDisplay:10.37,2013-07-28 16:13:00,
2013-07-28 12:18:00,75.0,62.0,29.99,ENE,63,0.0,0.0,64,0.00,FEW,,0.00,WeatherDisplay:10.37,2013-07-28 16:18:00,
2013-07-28 12:23:00,74.9,61.9,29.99,ENE,63,0.0,0.0,64,0.00,FEW,,0.00,WeatherDisplay:10.37,2013-07-28 16:23:00,
2013-07-28 12:28:00,76.6,63.5,29.99,ENE,63,0.0,0.0,64,0.00,FEW,,0.00,WeatherDisplay:10.37,2013-07-28 16:28:00,
2013-07-28 12:33:00,75.2,62.2,29.99,ENE,63,0.0,0.0,64,0.00,FEW,,0.00,WeatherDisplay:10.37,2013-07-28 16:33:00,
2013-07-28 12:38:00,76.0,62.9,29.99,ENE,63,0.0,0.0,64,0.00,FEW,,0.00,WeatherDisplay:10.37,2013-07-28 16:38:00,
2013-07-28 12:43:00,76.4,63.3,29.99,ENE,63,3.5,3.5,64,0.00,FEW,,0.00,WeatherDisplay:10.37,2013-07-28 16:43:00,
2013-07-28 12:48:00,75.2,62.2,29.99,ENE,63,3.5,3.5,64,0.00,FEW,,0.00,WeatherDisplay:10.37,2013-07-28 16:48:00,
2013-07-28 12:53:00,75.1,62.1,29.99,ENE,63,2.3,2.3,64,0.00,FEW,,0.00,WeatherDisplay:10.37,2013-07-28 16:53:00,
2013-07-28 12:58:00,74.9,61.9,29.99,ENE,63,3.5,3.5,64,0.00,FEW,,0.00,WeatherDisplay:10.37,2013-07-28 16:58:00,
2013-07-28 12:59:00,74.9,61.9,29.99,ENE,63,3.5,3.5,64,0.00,FEW,,0.00,WeatherDisplay:10.37,2013-07-28 16:59:00,
2013-07-28 13:04:00,74.0,61.9,29.98,ENE,63,2.3,2.3,66,0.00,BKN,,0.00,WeatherDisplay:10.37,2013-07-28 17:04:00,
2013-07-28 13:09:00,75.6,63.4,29.98,ENE,65,2.3,2.3,66,0.00,BKN,,0.00,WeatherDisplay:10.37,2013-07-28 17:09:00,
2013-07-28 13:14:00,77.2,65.0,29.98,ENE,59,0.0,0.2,66,0.00,BKN,,0.00,WeatherDisplay:10.37,2013-07-28 17:14:00,
2013-07-28 13:19:00,77.0,64.8,29.98,ENE,59,1.0,1.0,66,0.00,BKN,,0.00,WeatherDisplay:10.37,2013-07-28 17:19:00,
2013-07-28 13:24:00,76.3,64.1,29.98,NE,51,2.3,2.3,66,0.00,BKN,,0.00,WeatherDisplay:10.37,2013-07-28 17:24:00,
2013-07-28 13:29:00,75.3,63.2,29.98,NE,41,2.3,2.3,66,0.00,BKN,,0.00,WeatherDisplay:10.37,2013-07-28 17:29:00,
2013-07-28 13:34:00,75.7,63.5,29.98,NE,39,2.3,2.3,66,0.00,BKN,,0.00,WeatherDisplay:10.37,2013-07-28 17:34:00,
2013-07-28 13:39:00,76.2,64.0,29.98,NE,39,2.3,2.3,66,0.00,BKN,,0.00,WeatherDisplay:10.37,2013-07-28 17:39:00,
2013-07-28 13:44:00,75.5,63.3,29.98,NE,40,2.3,2.3,66,0.00,BKN,,0.00,WeatherDisplay:10.37,2013-07-28 17:44:00,
2013-07-28 13:49:00,75.2,63.1,29.98,North,0,3.5,3.5,66,0.00,BKN,,0.00,WeatherDisplay:10.37,2013-07-28 17:49:00,
2013-07-28 13:54:00,75.0,62.9,29.98,North,0,2.3,2.3,66,0.00,BKN,,0.00,WeatherDisplay:10.37,2013-07-28 17:54:00,
2013-07-28 13:59:00,75.8,63.6,29.98,North,10,3.5,3.5,66,0.00,BKN,,0.00,WeatherDisplay:10.37,2013-07-28 17:59:00,
2013-07-28 14:04:00,76.2,64.0,29.98,North,10,1.1,1.1,66,0.00,BKN,,0.00,WeatherDisplay:10.37,2013-07-28 18:04:00,
2013-07-28 14:09:00,75.6,63.4,29.98,North,10,2.3,0.0,66,0.00,BKN,,0.00,WeatherDisplay:10.37,2013-07-28 18:09:00,
2013-07-28 14:14:00,75.0,65.0,29.98,NNE,30,2.3,2.3,71,0.00,BKN,,0.00,WeatherDisplay:10.37,2013-07-28 18:14:00,
2013-07-28 14:19:00,74.7,64.7,29.98,NNE,27,2.3,2.3,71,0.00,BKN,,0.00,WeatherDisplay:10.37,2013-07-28 18:19:00,
2013-07-28 14:24:00,74.4,64.4,29.98,North,3,3.5,3.5,71,0.00,BKN,,0.00,WeatherDisplay:10.37,2013-07-28 18:24:00,
2013-07-28 14:29:00,74.0,64.0,29.98,North,356,3.5,3.5,71,0.00,BKN,,0.00,WeatherDisplay:10.37,2013-07-28 18:29:00,
2013-07-28 14:34:00,74.6,65.4,29.98,NNE,25,3.0,3.0,73,0.00,BKN,,0.00,WeatherDisplay:10.37,2013-07-28 18:34:00,
2013-07-28 14:39:00,74.4,65.2,29.98,North,0,2.3,2.3,73,0.00,BKN,,0.00,WeatherDisplay:10.37,2013-07-28 18:39:00,
2013-07-28 14:44:00,74.3,65.1,29.99,North,0,1.1,1.1,73,0.00,SCT,,0.00,WeatherDisplay:10.37,2013-07-28 18:44:00,
2013-07-28 14:49:00,74.4,65.2,29.99,North,7,2.3,2.3,73,0.00,SCT,,0.00,WeatherDisplay:10.37,2013-07-28 18:49:00,
2013-07-28 14:54:00,74.0,64.8,29.99,North,0,2.3,2.3,73,0.00,SCT,,0.00,WeatherDisplay:10.37,2013-07-28 18:54:00,
2013-07-28 14:59:00,73.8,64.6,29.99,NNW,343,3.5,3.5,73,0.00,SCT,,0.00,WeatherDisplay:10.37,2013-07-28 18:59:00,
2013-07-28 15:04:00,73.0,63.8,29.99,North,352,3.5,3.5,73,0.00,BKN,,0.00,WeatherDisplay:10.37,2013-07-28 19:04:00,
2013-07-28 15:09:00,73.1,63.9,29.99,North,0,3.5,3.5,73,0.00,BKN,,0.00,WeatherDisplay:10.37,2013-07-28 19:09:00,
2013-07-28 15:14:00,72.7,63.5,29.99,North,1,3.5,3.5,73,0.00,BKN,,0.00,WeatherDisplay:10.37,2013-07-28 19:14:00,
2013-07-28 15:19:00,72.1,63.0,29.99,North,0,2.3,2.3,73,0.00,BKN,,0.00,WeatherDisplay:10.37,2013-07-28 19:19:00,
2013-07-28 15:24:00,71.5,62.4,29.99,North,0,3.5,3.5,73,0.00,BKN,,0.00,WeatherDisplay:10.37,2013-07-28 19:24:00,
2013-07-28 15:29:00,72.0,62.9,29.99,North,0,1.1,1.1,73,0.00,BKN,,0.00,WeatherDisplay:10.37,2013-07-28 19:29:00,
2013-07-28 15:34:00,71.5,62.4,29.99,NE,48,3.5,3.5,73,0.00,BKN,,0.00,WeatherDisplay:10.37,2013-07-28 19:34:00,
2013-07-28 15:39:00,71.4,62.3,29.99,NE,38,1.1,1.1,73,0.00,BKN,,0.00,WeatherDisplay:10.37,2013-07-28 19:39:00,
2013-07-28 15:44:00,71.4,62.3,29.99,NNE,12,3.5,3.5,73,0.00,BKN,,0.00,WeatherDisplay:10.37,2013-07-28 19:44:00,
2013-07-28 15:49:00,71.0,61.9,29.99,North,4,2.3,2.3,73,0.00,BKN,,0.00,WeatherDisplay:10.37,2013-07-28 19:49:00,
2013-07-28 15:54:00,70.6,61.5,29.99,North,3,2.3,2.3,73,0.00,BKN,,0.00,WeatherDisplay:10.37,2013-07-28 19:54:00,
2013-07-28 15:59:00,70.4,61.3,29.99,North,11,1.1,1.1,73,0.00,BKN,,0.00,WeatherDisplay:10.37,2013-07-28 19:59:00,
2013-07-28 16:04:00,70.3,61.2,29.99,North,9,4.6,4.6,73,0.00,BKN,,0.00,WeatherDisplay:10.37,2013-07-28 20:04:00,
2013-07-28 16:09:00,69.9,60.8,29.99,North,351,2.3,2.3,73,0.00,BKN,,0.00,WeatherDisplay:10.37,2013-07-28 20:09:00,
2013-07-28 16:14:00,69.7,63.6,30.00,North,0,3.5,3.5,81,0.00,BKN,,0.00,WeatherDisplay:10.37,2013-07-28 20:14:00,
2013-07-28 16:19:00,69.8,63.7,30.00,NNE,31,1.1,1.1,81,0.00,BKN,,0.00,WeatherDisplay:10.37,2013-07-28 20:19:00,
2013-07-28 16:24:00,69.7,63.6,30.00,NNE,27,1.1,0.0,81,0.00,BKN,,0.00,WeatherDisplay:10.37,2013-07-28 20:24:00,
2013-07-28 16:29:00,69.7,63.6,30.00,NNE,26,1.1,1.1,81,0.00,BKN,,0.00,WeatherDisplay:10.37,2013-07-28 20:29:00,
2013-07-28 16:34:00,70.4,64.3,30.00,NNE,28,2.3,0.0,81,0.00,BKN,,0.00,WeatherDisplay:10.37,2013-07-28 20:34:00,
2013-07-28 16:39:00,69.9,63.8,30.00,NNE,30,2.3,2.3,81,0.00,BKN,,0.00,WeatherDisplay:10.37,2013-07-28 20:39:00,
2013-07-28 16:44:00,70.5,64.4,30.00,NE,49,2.3,2.3,81,0.00,BKN,,0.00,WeatherDisplay:10.37,2013-07-28 20:44:00,
2013-07-28 16:49:00,69.4,63.3,30.00,North,2,2.3,2.3,81,0.00,BKN,,0.00,WeatherDisplay:10.37,2013-07-28 20:49:00,
2013-07-28 16:54:00,69.8,63.7,30.00,NNE,29,2.3,2.3,81,0.00,BKN,,0.00,WeatherDisplay:10.37,2013-07-28 20:54:00,
2013-07-28 16:59:00,69.5,63.4,30.00,ENE,78,5.8,5.8,81,0.00,BKN,,0.00,WeatherDisplay:10.37,2013-07-28 20:59:00,
2013-07-28 17:04:00,69.4,64.4,29.99,ENE,71,4.0,4.0,84,0.00,OVC,,0.00,WeatherDisplay:10.37,2013-07-28 21:04:00,
2013-07-28 17:09:00,69.3,64.3,29.99,NE,34,3.5,3.5,84,0.00,OVC,,0.00,WeatherDisplay:10.37,2013-07-28 21:09:00,
2013-07-28 17:14:00,69.4,64.4,29.99,ENE,70,1.1,1.1,84,0.00,OVC,,0.00,WeatherDisplay:10.37,2013-07-28 21:14:00,
2013-07-28 17:19:00,68.7,63.7,29.99,ENE,63,2.0,2.0,84,0.00,OVC,,0.00,WeatherDisplay:10.37,2013-07-28 21:19:00,
2013-07-28 17:24:00,68.5,63.5,29.99,ENE,62,2.3,2.3,84,0.00,OVC,,0.00,WeatherDisplay:10.37,2013-07-28 21:24:00,
2013-07-28 17:29:00,68.4,63.4,29.99,ENE,61,2.3,2.3,84,0.00,OVC,,0.00,WeatherDisplay:10.37,2013-07-28 21:29:00,
2013-07-28 17:34:00,68.5,63.5,29.99,ENE,58,1.1,1.1,84,0.00,OVC,,0.00,WeatherDisplay:10.37,2013-07-28 21:34:00,
2013-07-28 17:39:00,68.4,63.4,29.99,ENE,58,1.0,1.0,84,0.00,OVC,,0.00,WeatherDisplay:10.37,2013-07-28 21:39:00,
2013-07-28 17:44:00,68.5,63.5,29.99,ENE,58,1.1,1.1,84,0.00,OVC,,0.00,WeatherDisplay:10.37,2013-07-28 21:44:00,
2013-07-28 17:49:00,68.5,63.5,29.99,ENE,59,3.5,3.5,84,0.00,OVC,,0.00,WeatherDisplay:10.37,2013-07-28 21:49:00,
2013-07-28 17:54:00,68.2,63.2,29.99,ENE,58,5.8,5.8,84,0.00,OVC,,0.00,WeatherDisplay:10.37,2013-07-28 21:54:00,
2013-07-28 17:59:00,68.1,63.1,29.99,NE,53,0.0,0.2,84,0.00,OVC,,0.00,WeatherDisplay:10.37,2013-07-28 21:59:00,
2013-07-28 18:04:00,68.2,63.2,29.99,NE,52,2.3,2.3,84,0.00,OVC,,0.00,WeatherDisplay:10.37,2013-07-28 22:04:00,
2013-07-28 18:09:00,68.1,63.1,29.99,NE,51,2.3,2.3,84,0.00,OVC,,0.00,WeatherDisplay:10.37,2013-07-28 22:09:00,
2013-07-28 18:14:00,68.0,63.7,29.99,NE,51,1.1,1.1,86,0.00,OVC,,0.00,WeatherDisplay:10.37,2013-07-28 22:14:00,
2013-07-28 18:19:00,67.8,63.5,29.99,NE,51,1.0,1.0,86,0.00,OVC,,0.00,WeatherDisplay:10.37,2013-07-28 22:19:00,
2013-07-28 18:24:00,68.1,63.8,29.99,NE,51,2.3,2.3,86,0.00,OVC,,0.00,WeatherDisplay:10.37,2013-07-28 22:24:00,
2013-07-28 18:29:00,67.6,63.3,29.99,NE,51,3.5,3.5,86,0.00,OVC,,0.00,WeatherDisplay:10.37,2013-07-28 22:29:00,
2013-07-28 18:34:00,67.5,63.2,29.99,NE,51,2.3,0.0,86,0.00,OVC,,0.00,WeatherDisplay:10.37,2013-07-28 22:34:00,
2013-07-28 18:39:00,67.4,63.1,29.99,NE,51,1.1,0.0,86,0.00,OVC,,0.00,WeatherDisplay:10.37,2013-07-28 22:39:00,
2013-07-28 18:44:00,67.3,63.0,29.99,NE,51,0.0,0.1,86,0.00,OVC,,0.00,WeatherDisplay:10.37,2013-07-28 22:44:00,
2013-07-28 18:49:00,67.6,63.3,29.99,NE,51,0.0,0.0,86,0.00,OVC,,0.00,WeatherDisplay:10.37,2013-07-28 22:49:00,
2013-07-28 18:54:00,67.7,63.4,29.99,NE,51,1.1,0.0,86,0.00,OVC,,0.00,WeatherDisplay:10.37,2013-07-28 22:54:00,
2013-07-28 18:59:00,67.6,63.3,29.99,NE,51,1.1,0.0,86,0.00,OVC,,0.00,WeatherDisplay:10.37,2013-07-28 22:59:00,
2013-07-28 19:04:00,67.6,63.3,29.99,NE,51,1.1,1.1,86,0.00,OVC,,0.00,WeatherDisplay:10.37,2013-07-28 23:04:00,
2013-07-28 19:09:00,67.4,63.1,29.99,NE,48,2.0,2.0,86,0.00,OVC,,0.00,WeatherDisplay:10.37,2013-07-28 23:09:00,
2013-07-28 19:14:00,67.0,64.0,30.00,NE,44,1.1,0.0,90,0.00,-RA,,0.00,WeatherDisplay:10.37,2013-07-28 23:14:00,
2013-07-28 19:19:00,67.1,64.1,30.00,North,0,1.1,1.1,90,0.00,-RA,,0.00,WeatherDisplay:10.37,2013-07-28 23:19:00,
2013-07-28 19:24:00,66.9,63.9,30.00,North,0,1.1,0.0,90,0.00,-RA,,0.00,WeatherDisplay:10.37,2013-07-28 23:24:00,
2013-07-28 19:29:00,67.0,64.0,30.00,NE,35,1.1,1.1,90,0.00,-RA,,0.00,WeatherDisplay:10.37,2013-07-28 23:29:00,
2013-07-28 19:34:00,67.1,64.1,30.00,NE,36,2.3,2.3,90,0.00,-RA,,0.00,WeatherDisplay:10.37,2013-07-28 23:34:00,
2013-07-28 19:39:00,66.8,63.8,30.00,NE,36,1.1,0.0,90,0.00,-RA,,0.00,WeatherDisplay:10.37,2013-07-28 23:39:00,
2013-07-28 19:44:00,66.6,63.6,30.00,NE,36,1.1,0.0,90,0.00,-RA,,0.00,WeatherDisplay:10.37,2013-07-28 23:44:00,
2013-07-28 19:49:00,66.6,63.6,30.00,NE,36,0.0,0.1,90,0.00,-RA,,0.00,WeatherDisplay:10.37,2013-07-28 23:49:00,
2013-07-28 19:54:00,66.7,63.7,30.00,NE,37,3.5,3.5,90,0.00,-RA,,0.00,WeatherDisplay:10.37,2013-07-28 23:54:00,
2013-07-28 19:59:00,66.6,63.6,30.00,NE,40,0.0,0.0,90,0.00,-RA,,0.00,WeatherDisplay:10.37,2013-07-28 23:59:00,
2013-07-28 20:04:00,66.5,64.4,30.01,NE,40,3.5,3.5,93,0.01,-RA,,0.01,WeatherDisplay:10.37,2013-07-29 00:04:00,
2013-07-28 20:09:00,66.3,64.2,30.01,NE,40,2.3,2.3,93,0.01,-RA,,0.01,WeatherDisplay:10.37,2013-07-29 00:09:00,
2013-07-28 20:14:00,66.3,64.2,30.01,NE,40,2.0,2.0,93,0.01,-RA,,0.01,WeatherDisplay:10.37,2013-07-29 00:14:00,
2013-07-28 20:19:00,66.1,64.0,30.01,NE,41,3.5,3.5,93,0.01,-RA,,0.01,WeatherDisplay:10.37,2013-07-29 00:19:00,
2013-07-28 20:24:00,65.8,63.7,30.01,NE,41,3.5,3.5,93,0.01,-RA,,0.02,WeatherDisplay:10.37,2013-07-29 00:24:00,
2013-07-28 20:29:00,65.5,63.4,30.01,NE,42,3.5,3.5,93,0.02,-RA,,0.02,WeatherDisplay:10.37,2013-07-29 00:29:00,
2013-07-28 20:34:00,65.4,63.3,30.01,NE,42,3.5,0.0,93,0.02,-RA,,0.02,WeatherDisplay:10.37,2013-07-29 00:34:00,
2013-07-28 20:39:00,65.3,63.2,30.01,NE,41,1.1,1.1,93,0.02,-RA,,0.02,WeatherDisplay:10.37,2013-07-29 00:39:00,
2013-07-28 20:44:00,65.4,63.3,30.01,NE,43,2.3,2.3,93,0.03,-RA,,0.03,WeatherDisplay:10.37,2013-07-29 00:44:00,
2013-07-28 20:49:00,65.2,63.1,30.01,NE,43,2.3,2.3,93,0.03,-RA,,0.03,WeatherDisplay:10.37,2013-07-29 00:49:00,
2013-07-28 20:54:00,65.3,63.2,30.01,NE,43,1.1,1.1,93,0.03,-RA,,0.03,WeatherDisplay:10.37,2013-07-29 00:54:00,
2013-07-28 20:59:00,65.2,63.1,30.01,NE,43,2.3,2.3,93,0.03,-RA,,0.03,WeatherDisplay:10.37,2013-07-29 00:59:00,
2013-07-28 21:04:00,65.2,63.1,30.01,NE,43,1.1,1.1,93,0.02,-RA,,0.03,WeatherDisplay:10.37,2013-07-29 01:04:00,
2013-07-28 21:09:00,64.6,62.5,30.01,NE,43,1.1,0.0,93,0.02,-RA,,0.03,WeatherDisplay:10.37,2013-07-29 01:09:00,
2013-07-28 21:14:00,64.9,63.7,30.02,NE,43,0.0,0.0,96,0.02,-RA,,0.03,WeatherDisplay:10.37,2013-07-29 01:14:00,
2013-07-28 21:19:00,65.1,63.9,30.02,NE,43,0.0,0.0,96,0.03,-RA,,0.04,WeatherDisplay:10.37,2013-07-29 01:19:00,
2013-07-28 21:25:00,64.9,63.8,30.02,NE,43,0.0,0.0,96,0.00,-RA,,0.04,WeatherDisplay:10.37,2013-07-29 01:25:00,
2013-07-28 21:30:00,65.0,63.8,30.02,NE,43,0.0,0.0,96,0.00,-RA,,0.04,WeatherDisplay:10.37,2013-07-29 01:30:00,
2013-07-28 21:35:00,64.6,63.5,30.02,NE,43,0.0,0.0,96,0.00,-RA,,0.04,WeatherDisplay:10.37,2013-07-29 01:35:00,
2013-07-28 21:40:00,64.0,62.9,30.02,NE,43,0.0,0.0,96,0.00,-RA,,0.04,WeatherDisplay:10.37,2013-07-29 01:40:00,
2013-07-28 21:45:00,63.8,62.7,30.02,NE,43,0.0,0.0,96,0.00,-RA,,0.04,WeatherDisplay:10.37,2013-07-29 01:45:00,
2013-07-28 21:50:00,63.9,62.7,30.02,NE,43,0.0,0.0,96,0.00,-RA,,0.04,WeatherDisplay:10.37,2013-07-29 01:50:00,
2013-07-28 21:55:00,63.7,62.5,30.02,NE,43,0.0,0.0,96,0.00,-RA,,0.04,WeatherDisplay:10.37,2013-07-29 01:55:00,
2013-07-28 22:00:00,63.7,62.5,30.02,NE,43,0.0,0.0,96,0.01,-RA,,0.04,WeatherDisplay:10.37,2013-07-29 02:00:00,
2013-07-28 22:05:00,63.6,62.4,30.02,NE,43,0.0,0.0,96,0.01,-RA,,0.04,WeatherDisplay:10.37,2013-07-29 02:05:00,
2013-07-28 22:10:00,63.5,62.3,30.02,NE,43,0.0,0.0,96,0.02,-RA,,0.05,WeatherDisplay:10.37,2013-07-29 02:10:00,
2013-07-28 22:15:00,63.5,62.3,30.02,NE,43,0.0,0.0,96,0.01,-RA,,0.05,WeatherDisplay:10.37,2013-07-29 02:15:00,
2013-07-28 22:20:00,63.3,62.1,30.02,NE,43,0.0,0.0,96,0.01,-RA,,0.05,WeatherDisplay:10.37,2013-07-29 02:20:00,
2013-07-28 22:26:00,63.0,61.8,30.02,NE,43,0.0,0.0,96,0.01,-RA,,0.05,WeatherDisplay:10.37,2013-07-29 02:26:00,
2013-07-28 22:31:00,63.1,61.9,30.02,NE,43,0.0,0.0,96,0.01,-RA,,0.05,WeatherDisplay:10.37,2013-07-29 02:31:00,
2013-07-28 22:37:00,63.3,62.1,30.02,NE,43,0.0,0.0,96,0.01,-RA,,0.05,WeatherDisplay:10.37,2013-07-29 02:37:00,
2013-07-28 22:42:00,63.9,62.7,30.02,NE,43,0.0,0.0,96,0.01,-RA,,0.05,WeatherDisplay:10.37,2013-07-29 02:42:00,
2013-07-28 22:47:00,64.4,63.2,30.02,NE,43,0.0,0.0,96,0.01,-RA,,0.05,WeatherDisplay:10.37,2013-07-29 02:47:00,
2013-07-28 22:52:00,63.8,62.6,30.02,NE,43,0.0,0.0,96,0.01,-RA,,0.05,WeatherDisplay:10.37,2013-07-29 02:52:00,
2013-07-28 22:58:00,63.4,62.2,30.02,NE,43,0.0,0.0,96,0.01,-RA,,0.05,WeatherDisplay:10.37,2013-07-29 02:58:00,
2013-07-28 23:03:00,64.3,63.1,30.02,NE,43,0.0,0.0,96,0.01,OVC,,0.05,WeatherDisplay:10.37,2013-07-29 03:03:00,
2013-07-28 23:08:00,64.3,63.1,30.02,NE,43,0.0,0.0,96,0.00,OVC,,0.05,WeatherDisplay:10.37,2013-07-29 03:08:00,
2013-07-28 23:13:00,64.4,63.2,30.02,NE,43,0.0,0.0,96,0.00,OVC,,0.05,WeatherDisplay:10.37,2013-07-29 03:13:00,
2013-07-28 23:18:00,64.0,62.8,30.02,NE,43,0.0,0.0,96,0.00,OVC,,0.05,WeatherDisplay:10.37,2013-07-29 03:18:00,
2013-07-28 23:23:00,64.1,62.9,30.02,NE,43,0.0,0.0,96,0.00,OVC,,0.05,WeatherDisplay:10.37,2013-07-29 03:23:00,
2013-07-28 23:28:00,63.4,62.2,30.02,NE,43,0.0,0.0,96,0.00,OVC,,0.05,WeatherDisplay:10.37,2013-07-29 03:28:00,
2013-07-28 23:33:00,63.3,62.1,30.02,NE,43,0.0,0.0,96,0.00,OVC,,0.05,WeatherDisplay:10.37,2013-07-29 03:33:00,
2013-07-28 23:38:00,63.2,62.0,30.02,NE,43,0.0,0.0,96,0.00,OVC,,0.05,WeatherDisplay:10.37,2013-07-29 03:38:00,
2013-07-28 23:43:00,63.1,61.9,30.02,NE,43,0.0,0.0,96,0.00,OVC,,0.05,WeatherDisplay:10.37,2013-07-29 03:43:00,
2013-07-28 23:49:00,63.1,61.9,30.02,NE,43,0.0,0.0,96,0.00,OVC,,0.05,WeatherDisplay:10.37,2013-07-29 03:49:00,
2013-07-28 23:54:00,63.4,62.2,30.02,NE,43,0.0,0.0,96,0.00,OVC,,0.05,WeatherDisplay:10.37,2013-07-29 03:54:00,
2013-07-28 23:59:00,63.1,61.9,30.02,NE,43,0.0,0.0,96,0.00,OVC,,0.05,WeatherDisplay:10.37,2013-07-29 03:59:00,